createdAt,value
2023-03-16T00:00:51.019Z,65.97
2023-03-16T00:01:54.715Z,66.05
2023-03-16T00:02:56.531Z,65.87
2023-03-16T00:03:58.009Z,65.71
2023-03-16T00:04:59.880Z,66.13
2023-03-16T00:06:01.534Z,66.16
2023-03-16T00:07:04.579Z,65.98
2023-03-16T00:08:06.124Z,66.09
2023-03-16T00:09:09.063Z,66.36
2023-03-16T00:10:12.549Z,66.47
2023-03-16T00:11:14.132Z,66.22
2023-03-16T00:12:18.224Z,66.22
2023-03-16T00:13:25.568Z,66.55
2023-03-16T00:14:27.434Z,66.23
2023-03-16T00:15:29.606Z,66.23
2023-03-16T00:16:31.442Z,66.61
2023-03-16T00:17:34.038Z,66.75
2023-03-16T00:18:38.485Z,66.48
2023-03-16T00:19:46.030Z,66.62
2023-03-16T00:20:56.237Z,66.53
2023-03-16T00:21:57.815Z,66.49
2023-03-16T00:23:00.206Z,66.72
2023-03-16T00:24:03.545Z,67.52
2023-03-16T00:25:05.838Z,67.30
2023-03-16T00:26:09.447Z,67.65
2023-03-16T00:27:15.398Z,67.84
2023-03-16T00:28:17.179Z,67.70
2023-03-16T00:29:18.714Z,67.58
2023-03-16T00:30:20.249Z,67.37
2023-03-16T00:31:24.400Z,67.59
2023-03-16T00:32:28.910Z,67.53
2023-03-16T00:33:34.143Z,67.92
2023-03-16T00:34:35.618Z,67.81
2023-03-16T00:35:38.825Z,67.63
2023-03-16T00:36:42.097Z,67.83
2023-03-16T00:37:43.969Z,67.61
2023-03-16T00:38:46.374Z,67.86
2023-03-16T00:39:49.039Z,67.91
2023-03-16T00:40:50.753Z,68.35
2023-03-16T00:41:52.287Z,68.48
2023-03-16T00:42:54.480Z,68.47
2023-03-16T00:43:55.922Z,68.44
2023-03-16T00:44:58.739Z,68.05
2023-03-16T00:46:06.049Z,68.32
2023-03-16T00:47:08.398Z,68.68
2023-03-16T00:48:10.892Z,68.45
2023-03-16T00:49:12.642Z,68.46
2023-03-16T00:50:15.108Z,68.55
2023-03-16T00:51:18.958Z,68.64
2023-03-16T00:52:21.600Z,68.63
2023-03-16T00:53:23.082Z,68.39
2023-03-16T00:54:26.388Z,68.54
2023-03-16T00:55:28.008Z,68.59
2023-03-16T00:56:29.567Z,68.53
2023-03-16T00:57:31.275Z,68.63
2023-03-16T00:58:35.155Z,68.49
2023-03-16T00:59:37.299Z,68.61
2023-03-16T01:00:40.427Z,69.09
2023-03-16T01:01:42.297Z,69.02
2023-03-16T01:02:44.877Z,68.34
2023-03-16T01:03:46.845Z,68.81
2023-03-16T01:04:48.918Z,68.76
2023-03-16T01:05:50.435Z,69.16
2023-03-16T01:06:52.024Z,68.84
2023-03-16T01:07:53.474Z,68.70
2023-03-16T01:08:55.028Z,68.45
2023-03-16T01:09:57.329Z,68.43
2023-03-16T01:11:10.172Z,69.01
2023-03-16T01:12:14.635Z,69.26
2023-03-16T01:13:16.287Z,69.05
2023-03-16T01:14:17.802Z,69.57
2023-03-16T01:15:19.329Z,69.35
2023-03-16T01:16:22.768Z,69.33
2023-03-16T01:17:24.281Z,69.01
2023-03-16T01:18:27.081Z,69.11
2023-03-16T01:19:29.476Z,68.80
2023-03-16T01:20:32.849Z,69.25
2023-03-16T01:21:36.325Z,69.29
2023-03-16T01:22:38.188Z,69.53
2023-03-16T01:23:40.406Z,69.28
2023-03-16T01:24:44.631Z,69.24
2023-03-16T01:25:53.595Z,69.13
2023-03-16T01:26:55.742Z,69.02
2023-03-16T01:27:57.713Z,69.27
2023-03-16T01:28:59.321Z,69.17
2023-03-16T01:30:01.589Z,69.34
2023-03-16T01:31:25.657Z,69.75
2023-03-16T01:32:27.682Z,69.35
2023-03-16T01:33:30.090Z,69.48
2023-03-16T01:34:33.214Z,69.63
2023-03-16T01:35:34.730Z,69.67
2023-03-16T01:36:36.418Z,69.57
2023-03-16T01:37:40.795Z,69.56
2023-03-16T01:39:01.346Z,70.05
2023-03-16T01:40:10.627Z,69.67
2023-03-16T01:41:13.838Z,69.64
2023-03-16T01:42:15.374Z,69.74
2023-03-16T01:43:22.422Z,69.87
2023-03-16T01:44:34.514Z,69.69
2023-03-16T01:46:13.778Z,69.99
2023-03-16T01:47:18.263Z,70.05
2023-03-16T01:48:24.930Z,69.92
2023-03-16T01:49:32.107Z,69.86
2023-03-16T01:50:34.815Z,69.73
2023-03-16T01:51:43.930Z,69.88
2023-03-16T01:52:45.598Z,70.24
2023-03-16T01:53:52.488Z,70.24
2023-03-16T01:54:59.945Z,70.07
2023-03-16T01:56:07.757Z,70.02
2023-03-16T01:57:12.200Z,69.97
2023-03-16T01:58:16.668Z,70.02
2023-03-16T01:59:24.355Z,70.21
2023-03-16T02:00:31.127Z,70.15
2023-03-16T02:01:36.498Z,70.28
2023-03-16T02:02:42.884Z,70.19
2023-03-16T02:03:45.384Z,69.77
2023-03-16T02:05:12.281Z,69.97
2023-03-16T02:06:19.724Z,70.24
2023-03-16T02:07:29.877Z,70.47
2023-03-16T02:08:32.710Z,70.26
2023-03-16T02:09:38.463Z,70.61
2023-03-16T02:10:40.578Z,70.36
2023-03-16T02:11:42.216Z,70.45
2023-03-16T02:12:47.011Z,70.52
2023-03-16T02:13:49.686Z,69.98
2023-03-16T02:14:51.716Z,69.91
2023-03-16T02:15:54.070Z,70.00
2023-03-16T02:16:56.199Z,70.06
2023-03-16T02:17:59.591Z,70.25
2023-03-16T02:19:01.381Z,70.48
2023-03-16T02:20:15.704Z,70.49
2023-03-16T02:21:42.348Z,70.47
2023-03-16T02:22:47.910Z,70.65
2023-03-16T02:23:50.960Z,70.16
2023-03-16T02:24:53.351Z,70.39
2023-03-16T02:26:14.396Z,70.25
2023-03-16T02:27:52.260Z,70.43
2023-03-16T02:29:11.331Z,71.49
2023-03-16T02:30:17.255Z,70.84
2023-03-16T02:31:31.758Z,70.79
2023-03-16T02:32:35.781Z,70.47
2023-03-16T02:33:38.568Z,70.67
2023-03-16T02:34:42.685Z,70.50
2023-03-16T02:35:44.448Z,70.73
2023-03-16T02:36:49.087Z,70.80
2023-03-16T02:37:52.019Z,70.82
2023-03-16T02:38:53.767Z,70.71
2023-03-16T02:39:55.474Z,70.44
2023-03-16T02:41:00.774Z,70.46
2023-03-16T02:42:03.174Z,70.69
2023-03-16T02:43:10.081Z,70.57
2023-03-16T02:44:23.718Z,70.56
2023-03-16T02:45:28.426Z,70.88
2023-03-16T02:46:35.081Z,70.92
2023-03-16T02:47:41.143Z,70.80
2023-03-16T02:48:49.084Z,70.70
2023-03-16T02:49:50.847Z,70.55
2023-03-16T02:50:54.182Z,70.56
2023-03-16T02:51:56.869Z,70.57
2023-03-16T02:52:58.699Z,70.62
2023-03-16T02:54:00.576Z,70.41
2023-03-16T02:55:05.317Z,70.47
2023-03-16T02:56:07.768Z,70.70
2023-03-16T02:57:10.689Z,70.73
2023-03-16T02:58:13.154Z,70.46
2023-03-16T02:59:14.785Z,70.52
2023-03-16T03:00:18.544Z,70.65
2023-03-16T03:01:21.774Z,70.65
2023-03-16T03:02:23.526Z,70.73
2023-03-16T03:03:25.072Z,70.65
2023-03-16T03:04:26.736Z,70.78
2023-03-16T03:05:28.306Z,70.73
2023-03-16T03:06:31.707Z,70.60
2023-03-16T03:07:33.666Z,70.58
2023-03-16T03:08:38.345Z,70.70
2023-03-16T03:09:43.640Z,70.92
2023-03-16T03:10:45.636Z,70.61
2023-03-16T03:11:47.167Z,70.53
2023-03-16T03:12:48.842Z,71.01
2023-03-16T03:13:51.069Z,70.94
2023-03-16T03:14:56.633Z,70.92
2023-03-16T03:15:59.576Z,71.20
2023-03-16T03:17:01.730Z,71.30
2023-03-16T03:18:03.857Z,71.13
2023-03-16T03:19:05.619Z,71.25
2023-03-16T03:20:15.631Z,71.18
2023-03-16T03:21:17.246Z,71.11
2023-03-16T03:22:18.726Z,71.44
2023-03-16T03:23:20.522Z,71.27
2023-03-16T03:24:22.967Z,71.32
2023-03-16T03:25:24.454Z,71.09
2023-03-16T03:26:27.396Z,70.76
2023-03-16T03:27:29.544Z,70.90
2023-03-16T03:28:33.602Z,71.00
2023-03-16T03:29:35.459Z,71.18
2023-03-16T03:30:36.888Z,71.27
2023-03-16T03:31:38.862Z,71.22
2023-03-16T03:32:41.760Z,71.30
2023-03-16T03:33:44.356Z,71.27
2023-03-16T03:34:46.090Z,71.14
2023-03-16T03:35:55.918Z,71.57
2023-03-16T03:36:58.508Z,71.82
2023-03-16T03:38:00.405Z,71.61
2023-03-16T03:39:04.379Z,71.69
2023-03-16T03:40:07.990Z,71.66
2023-03-16T03:41:09.561Z,71.68
2023-03-16T03:42:12.835Z,71.74
2023-03-16T03:43:14.489Z,72.02
2023-03-16T03:44:16.660Z,71.82
2023-03-16T03:45:18.227Z,71.61
2023-03-16T03:46:20.097Z,71.74
2023-03-16T03:47:22.169Z,71.63
2023-03-16T03:48:24.806Z,71.61
2023-03-16T03:49:26.623Z,71.89
2023-03-16T03:50:28.276Z,71.62
2023-03-16T03:51:50.663Z,72.12
2023-03-16T03:52:58.459Z,71.81
2023-03-16T03:54:00.421Z,71.85
2023-03-16T03:55:14.957Z,71.78
2023-03-16T03:56:16.684Z,71.66
2023-03-16T03:57:19.843Z,71.66
2023-03-16T03:58:22.694Z,72.04
2023-03-16T03:59:24.246Z,72.22
2023-03-16T04:00:43.129Z,72.32
2023-03-16T04:01:44.626Z,72.45
2023-03-16T04:02:46.838Z,72.02
2023-03-16T04:03:59.962Z,72.36
2023-03-16T04:05:01.403Z,72.17
2023-03-16T04:06:03.380Z,72.21
2023-03-16T04:07:06.134Z,72.02
2023-03-16T04:08:07.670Z,72.15
2023-03-16T04:09:09.635Z,72.07
2023-03-16T04:10:11.147Z,72.06
2023-03-16T04:11:14.864Z,71.88
2023-03-16T04:12:16.508Z,72.01
2023-03-16T04:13:18.315Z,71.89
2023-03-16T04:14:20.025Z,71.80
2023-03-16T04:15:21.652Z,72.11
2023-03-16T04:16:34.544Z,72.18
2023-03-16T04:17:36.148Z,72.43
2023-03-16T04:18:40.205Z,72.30
2023-03-16T04:19:42.772Z,72.38
2023-03-16T04:20:47.753Z,72.14
2023-03-16T04:21:52.777Z,72.51
2023-03-16T04:22:57.833Z,72.53
2023-03-16T04:23:59.363Z,72.35
2023-03-16T04:25:06.692Z,72.18
2023-03-16T04:26:11.511Z,72.51
2023-03-16T04:27:13.147Z,72.39
2023-03-16T04:28:17.112Z,71.88
2023-03-16T04:29:19.773Z,71.93
2023-03-16T04:30:22.904Z,72.04
2023-03-16T04:31:26.644Z,72.21
2023-03-16T04:32:28.098Z,72.42
2023-03-16T04:33:31.597Z,72.45
2023-03-16T04:34:33.754Z,72.33
2023-03-16T04:35:37.397Z,72.29
2023-03-16T04:36:39.167Z,72.31
2023-03-16T04:37:40.798Z,72.37
2023-03-16T04:38:43.231Z,72.24
2023-03-16T04:39:44.931Z,72.08
2023-03-16T04:40:46.511Z,72.05
2023-03-16T04:41:51.280Z,72.26
2023-03-16T04:42:56.506Z,72.41
2023-03-16T04:43:58.257Z,72.52
2023-03-16T04:44:59.933Z,72.54
2023-03-16T04:46:03.775Z,72.50
2023-03-16T04:47:05.667Z,72.63
2023-03-16T04:48:11.532Z,72.35
2023-03-16T04:49:13.522Z,72.12
2023-03-16T04:50:18.034Z,72.28
2023-03-16T04:51:25.824Z,72.29
2023-03-16T04:52:38.254Z,72.60
2023-03-16T04:53:40.200Z,72.42
2023-03-16T04:54:48.378Z,72.66
2023-03-16T04:55:50.635Z,72.47
2023-03-16T04:56:52.806Z,72.37
2023-03-16T04:58:14.715Z,72.28
2023-03-16T04:59:16.181Z,72.18
2023-03-16T05:00:25.874Z,72.30
2023-03-16T05:01:44.340Z,72.52
2023-03-16T05:02:47.985Z,72.32
2023-03-16T05:03:49.669Z,72.47
2023-03-16T05:04:51.336Z,72.56
2023-03-16T05:05:52.849Z,72.55
2023-03-16T05:06:54.318Z,72.57
2023-03-16T05:07:59.006Z,72.43
2023-03-16T05:09:04.403Z,72.44
2023-03-16T05:10:12.897Z,72.44
2023-03-16T05:11:15.168Z,72.56
2023-03-16T05:12:24.059Z,72.71
2023-03-16T05:13:29.142Z,72.97
2023-03-16T05:14:35.398Z,72.69
2023-03-16T05:15:53.193Z,72.60
2023-03-16T05:16:59.027Z,72.41
2023-03-16T05:18:01.040Z,72.53
2023-03-16T05:19:02.892Z,72.39
2023-03-16T05:20:08.516Z,72.35
2023-03-16T05:21:12.113Z,72.34
2023-03-16T05:22:22.941Z,72.75
2023-03-16T05:23:39.653Z,72.92
2023-03-16T05:24:41.312Z,72.87
2023-03-16T05:25:42.839Z,72.65
2023-03-16T05:26:44.823Z,72.67
2023-03-16T05:27:53.762Z,72.55
2023-03-16T05:29:01.900Z,72.60
2023-03-16T05:30:06.010Z,72.32
2023-03-16T05:31:10.328Z,72.35
2023-03-16T05:32:16.420Z,72.43
2023-03-16T05:33:18.798Z,72.57
2023-03-16T05:34:22.825Z,72.50
2023-03-16T05:35:25.561Z,72.45
2023-03-16T05:36:28.243Z,72.29
2023-03-16T05:37:37.492Z,72.57
2023-03-16T05:38:42.147Z,72.58
2023-03-16T05:39:45.326Z,72.47
2023-03-16T05:40:52.684Z,72.20
2023-03-16T05:42:12.990Z,72.18
2023-03-16T05:43:21.590Z,72.66
2023-03-16T05:44:24.882Z,72.51
2023-03-16T05:45:34.747Z,72.63
2023-03-16T05:46:45.144Z,72.72
2023-03-16T05:47:46.960Z,72.69
2023-03-16T05:48:48.598Z,72.88
2023-03-16T05:49:50.296Z,72.72
2023-03-16T05:51:05.563Z,72.82
2023-03-16T05:52:07.305Z,72.76
2023-03-16T05:53:09.672Z,72.92
2023-03-16T05:54:11.773Z,72.87
2023-03-16T05:55:18.654Z,72.87
2023-03-16T05:56:25.369Z,72.73
2023-03-16T05:57:27.572Z,72.80
2023-03-16T05:58:29.677Z,72.83
2023-03-16T05:59:31.986Z,72.75
2023-03-16T06:00:33.618Z,72.77
2023-03-16T06:01:43.941Z,72.86
2023-03-16T06:02:48.127Z,72.79
2023-03-16T06:03:51.232Z,72.67
2023-03-16T06:04:56.042Z,72.82
2023-03-16T06:05:57.899Z,72.79
2023-03-16T06:07:04.890Z,72.76
2023-03-16T06:08:07.232Z,72.80
2023-03-16T06:09:09.112Z,72.74
2023-03-16T06:10:12.769Z,72.73
2023-03-16T06:11:14.639Z,72.72
2023-03-16T06:12:16.540Z,72.70
2023-03-16T06:13:19.059Z,72.52
2023-03-16T06:14:20.761Z,72.40
2023-03-16T06:15:25.975Z,72.31
2023-03-16T06:16:28.600Z,72.14
2023-03-16T06:17:30.191Z,72.00
2023-03-16T06:18:33.700Z,71.90
2023-03-16T06:19:35.446Z,71.92
2023-03-16T06:20:37.232Z,71.97
2023-03-16T06:21:38.853Z,72.02
2023-03-16T06:22:44.465Z,72.02
2023-03-16T06:23:46.386Z,71.91
2023-03-16T06:24:48.802Z,71.95
2023-03-16T06:25:53.989Z,72.01
2023-03-16T06:26:55.909Z,71.87
2023-03-16T06:28:00.464Z,71.85
2023-03-16T06:29:02.206Z,72.01
2023-03-16T06:30:06.470Z,71.98
2023-03-16T06:31:08.345Z,71.92
2023-03-16T06:32:10.650Z,72.09
2023-03-16T06:33:12.357Z,72.00
2023-03-16T06:34:14.106Z,71.91
2023-03-16T06:35:15.806Z,71.99
2023-03-16T06:36:22.258Z,71.94
2023-03-16T06:37:28.025Z,72.12
2023-03-16T06:38:29.537Z,71.95
2023-03-16T06:39:45.590Z,72.19
2023-03-16T06:40:52.293Z,71.98
2023-03-16T06:41:54.875Z,72.21
2023-03-16T06:42:57.174Z,72.01
2023-03-16T06:43:58.751Z,71.78
2023-03-16T06:45:00.327Z,71.63
2023-03-16T06:46:02.854Z,71.78
2023-03-16T06:47:05.139Z,71.77
2023-03-16T06:48:09.095Z,71.58
2023-03-16T06:49:10.692Z,71.44
2023-03-16T06:50:12.169Z,71.41
2023-03-16T06:51:16.317Z,71.31
2023-03-16T06:52:19.236Z,71.32
2023-03-16T06:53:21.438Z,71.34
2023-03-16T06:54:23.010Z,71.22
2023-03-16T06:55:24.462Z,71.00
2023-03-16T06:56:27.237Z,71.03
2023-03-16T06:57:28.765Z,70.99
2023-03-16T06:58:30.507Z,70.97
2023-03-16T06:59:31.974Z,70.95
2023-03-16T07:00:33.607Z,70.91
2023-03-16T07:01:35.082Z,70.91
2023-03-16T07:02:39.501Z,70.93
2023-03-16T07:04:01.148Z,71.21
2023-03-16T07:05:07.700Z,71.07
2023-03-16T07:06:11.436Z,71.07
2023-03-16T07:07:13.845Z,70.93
2023-03-16T07:08:17.681Z,70.89
2023-03-16T07:09:21.224Z,70.77
2023-03-16T07:10:24.920Z,70.49
2023-03-16T07:11:27.076Z,70.36
2023-03-16T07:12:28.795Z,70.25
2023-03-16T07:13:30.918Z,70.40
2023-03-16T07:14:34.241Z,70.15
2023-03-16T07:15:37.159Z,70.12
2023-03-16T07:16:40.620Z,70.09
2023-03-16T07:17:44.015Z,69.99
2023-03-16T07:18:46.792Z,69.61
2023-03-16T07:19:50.130Z,69.54
2023-03-16T07:20:53.678Z,69.42
2023-03-16T07:21:57.196Z,69.27
2023-03-16T07:23:00.173Z,68.59
2023-03-16T07:24:02.207Z,68.46
2023-03-16T07:25:05.871Z,68.47
2023-03-16T07:26:14.041Z,68.22
2023-03-16T07:27:24.962Z,68.14
2023-03-16T07:28:27.406Z,67.39
2023-03-16T07:29:29.871Z,67.02
2023-03-16T07:30:35.229Z,66.98
2023-03-16T07:31:38.959Z,66.93
2023-03-16T07:32:47.325Z,66.87
2023-03-16T07:33:50.273Z,66.23
2023-03-16T07:34:59.509Z,66.18
2023-03-16T07:36:03.806Z,66.19
2023-03-16T07:37:08.570Z,66.27
2023-03-16T07:38:11.666Z,66.15
2023-03-16T07:39:17.088Z,66.17
2023-03-16T07:40:19.511Z,65.93
2023-03-16T07:41:24.921Z,65.86
2023-03-16T07:42:27.017Z,65.80
2023-03-16T07:43:35.535Z,65.63
2023-03-16T07:44:37.371Z,65.28
2023-03-16T07:45:39.639Z,65.33
2023-03-16T07:46:44.543Z,65.37
2023-03-16T07:47:47.350Z,65.60
2023-03-16T07:49:09.033Z,65.27
2023-03-16T07:50:14.971Z,65.43
2023-03-16T07:51:20.689Z,65.62
2023-03-16T07:52:24.774Z,65.57
2023-03-16T07:53:27.041Z,65.14
2023-03-16T07:54:42.741Z,64.95
2023-03-16T07:55:46.940Z,64.96
2023-03-16T07:56:49.938Z,65.07
2023-03-16T07:58:13.698Z,64.95
2023-03-16T07:59:20.795Z,64.53
2023-03-16T08:00:24.102Z,63.76
2023-03-16T08:01:33.919Z,62.89
2023-03-16T08:02:36.174Z,64.21
2023-03-16T08:03:40.087Z,64.33
2023-03-16T08:04:44.308Z,64.36
2023-03-16T08:05:47.934Z,63.60
2023-03-16T08:06:55.001Z,62.83
2023-03-16T08:08:00.467Z,62.57
2023-03-16T08:09:03.727Z,62.66
2023-03-16T08:10:10.901Z,62.32
2023-03-16T08:11:23.124Z,61.32
2023-03-16T08:12:31.246Z,60.37
2023-03-16T08:13:34.760Z,60.60
2023-03-16T08:14:38.191Z,60.15
2023-03-16T08:15:49.800Z,60.79
2023-03-16T08:17:01.084Z,60.61
2023-03-16T08:18:03.789Z,60.88
2023-03-16T08:19:06.750Z,61.11
2023-03-16T08:20:11.700Z,61.28
2023-03-16T08:21:17.755Z,61.38
2023-03-16T08:22:20.807Z,60.44
2023-03-16T08:23:25.224Z,60.75
2023-03-16T08:24:28.844Z,60.66
2023-03-16T08:25:32.352Z,60.41
2023-03-16T08:26:39.939Z,60.02
2023-03-16T08:27:48.016Z,59.83
2023-03-16T08:28:51.405Z,59.68
2023-03-16T08:29:54.980Z,59.43
2023-03-16T08:30:59.290Z,59.14
2023-03-16T08:32:24.634Z,59.58
2023-03-16T08:33:27.283Z,60.53
2023-03-16T08:34:29.599Z,60.83
2023-03-16T08:35:32.380Z,60.23
2023-03-16T08:36:34.330Z,61.52
2023-03-16T08:37:38.206Z,62.60
2023-03-16T08:38:43.226Z,62.25
2023-03-16T08:39:46.086Z,62.46
2023-03-16T08:40:51.462Z,62.69
2023-03-16T08:41:56.053Z,62.62
2023-03-16T08:43:10.304Z,62.54
2023-03-16T08:44:12.637Z,62.43
2023-03-16T08:45:16.765Z,62.21
2023-03-16T08:46:21.593Z,61.83
2023-03-16T08:47:30.344Z,61.48
2023-03-16T08:48:32.874Z,61.55
2023-03-16T08:49:36.309Z,61.36
2023-03-16T08:50:44.291Z,61.00
2023-03-16T08:51:47.329Z,60.73
2023-03-16T08:52:51.748Z,60.11
2023-03-16T08:53:55.079Z,60.16
2023-03-16T08:55:03.464Z,60.02
2023-03-16T08:56:13.516Z,60.45
2023-03-16T08:57:16.971Z,60.44
2023-03-16T08:58:20.017Z,60.58
2023-03-16T08:59:30.101Z,60.56
2023-03-16T09:00:33.602Z,60.28
2023-03-16T09:01:40.806Z,60.63
2023-03-16T09:02:46.286Z,60.18
2023-03-16T09:03:48.527Z,60.37
2023-03-16T09:04:52.158Z,60.20
2023-03-16T09:06:09.281Z,60.11
2023-03-16T09:07:13.534Z,59.79
2023-03-16T09:08:17.499Z,59.79
2023-03-16T09:09:20.642Z,59.70
2023-03-16T09:10:23.232Z,59.40
2023-03-16T09:11:30.084Z,59.44
2023-03-16T09:12:35.504Z,59.48
2023-03-16T09:13:39.650Z,59.47
2023-03-16T09:14:43.307Z,59.92
2023-03-16T09:15:45.579Z,59.93
2023-03-16T09:16:49.247Z,59.60
2023-03-16T09:17:52.517Z,60.36
2023-03-16T09:18:55.224Z,60.09
2023-03-16T09:20:11.485Z,59.41
2023-03-16T09:21:26.145Z,59.37
2023-03-16T09:22:31.407Z,60.22
2023-03-16T09:23:34.370Z,60.38
2023-03-16T09:24:36.913Z,60.35
2023-03-16T09:25:39.756Z,60.30
2023-03-16T09:26:43.219Z,59.75
2023-03-16T09:27:46.080Z,59.57
2023-03-16T09:28:49.013Z,60.30
2023-03-16T09:29:52.420Z,60.06
2023-03-16T09:30:56.528Z,60.16
2023-03-16T09:32:00.234Z,60.23
2023-03-16T09:33:03.890Z,60.60
2023-03-16T09:34:06.082Z,61.51
2023-03-16T09:35:08.494Z,61.51
2023-03-16T09:36:11.266Z,61.93
2023-03-16T09:37:13.840Z,62.03
2023-03-16T09:38:17.491Z,62.30
2023-03-16T09:39:19.827Z,62.48
2023-03-16T09:40:27.876Z,62.35
2023-03-16T09:41:43.297Z,62.28
2023-03-16T09:42:54.458Z,62.09
2023-03-16T09:44:31.800Z,61.30
2023-03-16T09:45:44.890Z,61.06
2023-03-16T09:46:50.107Z,60.03
2023-03-16T09:47:57.189Z,60.10
2023-03-16T09:48:59.994Z,59.69
2023-03-16T09:50:06.124Z,59.49
2023-03-16T09:51:37.436Z,59.28
2023-03-16T09:53:03.514Z,58.38
2023-03-16T09:54:49.456Z,58.51
2023-03-16T09:56:02.642Z,58.84
2023-03-16T09:57:10.713Z,59.20
2023-03-16T09:58:18.863Z,59.25
2023-03-16T09:59:24.170Z,59.25
2023-03-16T10:00:54.704Z,59.85
2023-03-16T10:02:00.168Z,59.70
2023-03-16T10:03:15.363Z,59.94
2023-03-16T10:04:25.815Z,59.96
2023-03-16T10:05:27.842Z,59.95
2023-03-16T10:06:42.221Z,60.31
2023-03-16T10:08:06.310Z,60.66
2023-03-16T10:09:25.540Z,61.29
2023-03-16T10:10:41.829Z,61.06
2023-03-16T10:11:48.992Z,60.87
2023-03-16T10:12:53.820Z,61.59
2023-03-16T10:14:10.966Z,61.55
2023-03-16T10:15:23.794Z,61.08
2023-03-16T10:16:33.719Z,61.63
2023-03-16T10:17:45.456Z,60.83
2023-03-16T10:18:59.330Z,60.21
2023-03-16T10:20:08.399Z,60.54
2023-03-16T10:21:13.543Z,60.94
2023-03-16T10:22:25.674Z,61.24
2023-03-16T10:23:34.557Z,60.85
2023-03-16T10:25:03.404Z,60.84
2023-03-16T10:26:13.383Z,61.02
2023-03-16T10:27:23.665Z,60.90
2023-03-16T10:28:27.808Z,61.26
2023-03-16T10:29:36.127Z,61.21
2023-03-16T10:30:39.945Z,61.79
2023-03-16T10:31:42.216Z,61.43
2023-03-16T10:32:48.759Z,61.52
2023-03-16T10:34:04.935Z,61.81
2023-03-16T10:35:24.559Z,61.78
2023-03-16T10:36:34.757Z,61.89
2023-03-16T10:37:38.034Z,62.50
2023-03-16T10:38:40.399Z,62.78
2023-03-16T10:39:44.134Z,63.09
2023-03-16T10:40:53.372Z,62.46
2023-03-16T10:41:57.150Z,62.36
2023-03-16T10:43:12.158Z,61.97
2023-03-16T10:44:23.912Z,60.48
2023-03-16T10:45:32.033Z,59.93
2023-03-16T10:46:47.830Z,60.25
2023-03-16T10:47:50.558Z,59.65
2023-03-16T10:49:01.260Z,59.07
2023-03-16T10:50:13.649Z,58.73
2023-03-16T10:51:19.643Z,58.82
2023-03-16T10:52:31.089Z,59.09
2023-03-16T10:53:37.752Z,59.31
2023-03-16T10:54:49.097Z,59.95
2023-03-16T10:55:58.499Z,60.15
2023-03-16T10:57:22.693Z,60.98
2023-03-16T10:58:30.878Z,61.03
2023-03-16T10:59:36.411Z,61.40
2023-03-16T11:00:42.740Z,61.32
2023-03-16T11:01:49.314Z,61.54
2023-03-16T11:02:54.808Z,61.64
2023-03-16T11:03:58.599Z,61.63
2023-03-16T11:05:30.380Z,61.65
2023-03-16T11:06:34.064Z,61.64
2023-03-16T11:07:38.606Z,60.91
2023-03-16T11:08:47.114Z,61.64
2023-03-16T11:09:51.789Z,61.34
2023-03-16T11:10:58.716Z,61.90
2023-03-16T11:12:23.561Z,61.38
2023-03-16T11:13:35.489Z,61.31
2023-03-16T11:14:37.959Z,61.39
2023-03-16T11:16:17.381Z,60.69
2023-03-16T11:17:35.753Z,61.10
2023-03-16T11:18:50.230Z,61.28
2023-03-16T11:20:13.827Z,61.26
2023-03-16T11:21:26.825Z,60.59
2023-03-16T11:22:30.107Z,59.68
2023-03-16T11:23:44.002Z,59.02
2023-03-16T11:25:17.718Z,59.08
2023-03-16T11:26:30.669Z,59.21
2023-03-16T11:27:41.543Z,59.23
2023-03-16T11:28:55.703Z,59.30
2023-03-16T11:30:25.238Z,59.15
2023-03-16T11:31:48.789Z,59.24
2023-03-16T11:32:53.436Z,59.90
2023-03-16T11:33:56.869Z,59.35
2023-03-16T11:34:59.866Z,58.63
2023-03-16T11:36:21.524Z,58.11
2023-03-16T11:37:38.578Z,58.02
2023-03-16T11:39:05.849Z,58.26
2023-03-16T11:40:35.806Z,58.14
2023-03-16T11:41:58.996Z,58.15
2023-03-16T11:43:17.118Z,57.72
2023-03-16T11:44:50.542Z,57.58
2023-03-16T11:46:26.744Z,58.05
2023-03-16T11:47:59.753Z,57.39
2023-03-16T11:49:13.764Z,58.10
2023-03-16T11:50:37.163Z,58.53
2023-03-16T11:52:07.647Z,58.53
2023-03-16T11:54:09.087Z,57.74
2023-03-16T11:55:41.476Z,58.78
2023-03-16T11:56:52.134Z,59.01
2023-03-16T11:58:07.450Z,59.03
2023-03-16T11:59:25.561Z,59.39
2023-03-16T12:00:42.115Z,59.70
2023-03-16T12:02:07.567Z,59.93
2023-03-16T12:03:31.796Z,60.34
2023-03-16T12:04:48.448Z,60.74
2023-03-16T12:06:26.806Z,60.83
2023-03-16T12:07:54.826Z,61.29
2023-03-16T12:09:00.870Z,61.92
2023-03-16T12:10:07.437Z,62.39
2023-03-16T12:11:21.782Z,63.16
2023-03-16T12:12:49.097Z,63.68
2023-03-16T12:14:07.846Z,63.73
2023-03-16T12:15:30.189Z,63.32
2023-03-16T12:16:56.727Z,63.58
2023-03-16T12:18:09.008Z,64.02
2023-03-16T12:19:41.126Z,64.53
2023-03-16T12:20:58.981Z,64.14
2023-03-16T12:22:10.662Z,63.98
2023-03-16T12:23:22.838Z,64.37
2023-03-16T12:24:31.506Z,64.91
2023-03-16T12:25:38.913Z,64.66
2023-03-16T12:26:45.404Z,64.84
2023-03-16T12:27:59.989Z,65.24
2023-03-16T12:29:37.712Z,65.15
2023-03-16T12:30:52.787Z,65.52
2023-03-16T12:32:11.776Z,66.12
2023-03-16T12:33:20.065Z,67.09
2023-03-16T12:34:36.118Z,67.79
2023-03-16T12:36:04.118Z,68.28
2023-03-16T12:37:12.421Z,67.79
2023-03-16T12:38:39.016Z,67.51
2023-03-16T12:40:07.044Z,66.86
2023-03-16T12:41:22.463Z,67.59
2023-03-16T12:42:55.582Z,66.65
2023-03-16T12:44:17.405Z,67.42
2023-03-16T12:45:37.863Z,66.99
2023-03-16T12:47:03.941Z,66.63
2023-03-16T12:48:48.438Z,66.79
2023-03-16T12:49:53.861Z,65.26
2023-03-16T12:50:59.754Z,64.66
2023-03-16T12:52:15.907Z,64.09
2023-03-16T12:53:45.247Z,63.64
2023-03-16T12:55:06.186Z,63.66
2023-03-16T12:56:11.252Z,63.97
2023-03-16T12:57:16.558Z,64.41
2023-03-16T12:58:23.167Z,64.53
2023-03-16T12:59:38.282Z,65.07
2023-03-16T13:00:41.923Z,65.34
2023-03-16T13:01:48.273Z,65.55
2023-03-16T13:02:55.636Z,65.90
2023-03-16T13:04:05.952Z,66.16
2023-03-16T13:05:15.708Z,66.19
2023-03-16T13:06:23.488Z,66.13
2023-03-16T13:07:49.273Z,66.62
2023-03-16T13:09:00.391Z,66.76
2023-03-16T13:10:10.076Z,66.77
2023-03-16T13:11:14.048Z,67.09
2023-03-16T13:12:24.289Z,67.33
2023-03-16T13:13:27.689Z,67.39
2023-03-16T13:14:39.779Z,67.61
2023-03-16T13:15:46.695Z,67.29
2023-03-16T13:16:49.142Z,67.08
2023-03-16T13:18:09.438Z,66.41
2023-03-16T13:19:19.192Z,65.79
2023-03-16T13:20:31.309Z,66.13
2023-03-16T13:21:40.903Z,62.67
2023-03-16T13:22:52.434Z,61.00
2023-03-16T13:24:13.067Z,59.75
2023-03-16T13:25:37.718Z,59.39
2023-03-16T13:26:43.153Z,56.75
2023-03-16T13:27:49.424Z,57.46
2023-03-16T13:28:54.442Z,56.85
2023-03-16T13:30:02.846Z,57.24
2023-03-16T13:31:37.126Z,58.76
2023-03-16T13:32:40.379Z,59.98
2023-03-16T13:33:45.422Z,59.39
2023-03-16T13:34:52.793Z,59.16
2023-03-16T13:35:58.549Z,59.96
2023-03-16T13:37:01.900Z,60.16
2023-03-16T13:38:15.029Z,59.14
2023-03-16T13:39:20.095Z,59.47
2023-03-16T13:40:26.580Z,59.57
2023-03-16T13:41:31.197Z,58.52
2023-03-16T13:42:36.317Z,58.06
2023-03-16T13:43:41.844Z,55.44
2023-03-16T13:44:44.772Z,55.39
2023-03-16T13:45:47.738Z,54.54
2023-03-16T13:46:51.403Z,54.61
2023-03-16T13:47:53.463Z,52.35
2023-03-16T13:49:00.026Z,52.07
2023-03-16T13:50:02.113Z,52.69
2023-03-16T13:51:04.337Z,52.51
2023-03-16T13:52:17.138Z,51.98
2023-03-16T13:53:30.930Z,52.11
2023-03-16T13:54:36.589Z,51.50
2023-03-16T13:55:39.760Z,51.60
2023-03-16T13:56:44.670Z,51.51
2023-03-16T13:57:48.812Z,51.53
2023-03-16T13:58:52.283Z,51.49
2023-03-16T14:00:05.005Z,50.71
2023-03-16T14:01:35.177Z,49.98
2023-03-16T14:02:42.860Z,50.42
2023-03-16T14:03:44.659Z,50.03
2023-03-16T14:04:46.541Z,48.90
2023-03-16T14:05:48.883Z,47.72
2023-03-16T14:07:01.602Z,47.19
2023-03-16T14:08:04.346Z,46.63
2023-03-16T14:09:13.405Z,46.61
2023-03-16T14:10:16.557Z,46.51
2023-03-16T14:11:18.285Z,46.54
2023-03-16T14:12:19.709Z,46.72
2023-03-16T14:13:27.352Z,46.78
2023-03-16T14:14:31.519Z,46.67
2023-03-16T14:15:33.745Z,46.09
2023-03-16T14:16:35.323Z,45.19
2023-03-16T14:17:37.374Z,44.74
2023-03-16T14:18:45.375Z,44.81
2023-03-16T14:19:58.075Z,44.87
2023-03-16T14:21:04.795Z,44.81
2023-03-16T14:22:12.528Z,44.83
2023-03-16T14:23:28.090Z,45.91
2023-03-16T14:24:34.143Z,46.70
2023-03-16T14:25:35.640Z,46.47